sensor_id;sensor_type;location;lat;lon;timestamp;pressure;altitude;pressure_sealevel;temperature;humidity
6200;BME280;3133;43.214;27.906;2023-08-06T00:01:25;99396.25;;;24.72;100.00
6200;BME280;3133;43.214;27.906;2023-08-06T00:03:52;99398.44;;;24.67;100.00
6200;BME280;3133;43.214;27.906;2023-08-06T00:06:19;99387.97;;;24.53;100.00
6200;BME280;3133;43.214;27.906;2023-08-06T00:08:50;99369.75;;;24.47;100.00
6200;BME280;3133;43.214;27.906;2023-08-06T00:11:17;99332.38;;;24.24;100.00
6200;BME280;3133;43.214;27.906;2023-08-06T00:13:44;99352.25;;;24.31;100.00
6200;BME280;3133;43.214;27.906;2023-08-06T00:16:11;99346.19;;;24.29;100.00
6200;BME280;3133;43.214;27.906;2023-08-06T00:18:38;99341.72;;;24.30;100.00
6200;BME280;3133;43.214;27.906;2023-08-06T00:21:05;99355.44;;;24.36;100.00
6200;BME280;3133;43.214;27.906;2023-08-06T00:23:32;99334.19;;;24.24;100.00
6200;BME280;3133;43.214;27.906;2023-08-06T00:26:00;99341.50;;;24.33;100.00
6200;BME280;3133;43.214;27.906;2023-08-06T00:28:27;99350.63;;;24.42;100.00
6200;BME280;3133;43.214;27.906;2023-08-06T00:30:54;99348.03;;;24.40;100.00
6200;BME280;3133;43.214;27.906;2023-08-06T00:33:21;99316.00;;;24.18;100.00
6200;BME280;3133;43.214;27.906;2023-08-06T00:35:48;99352.78;;;24.36;100.00
6200;BME280;3133;43.214;27.906;2023-08-06T00:38:15;99298.75;;;24.11;100.00
6200;BME280;3133;43.214;27.906;2023-08-06T00:40:42;99310.66;;;24.18;100.00
6200;BME280;3133;43.214;27.906;2023-08-06T00:43:10;99348.03;;;24.40;100.00
6200;BME280;3133;43.214;27.906;2023-08-06T00:45:38;99333.13;;;24.37;100.00
6200;BME280;3133;43.214;27.906;2023-08-06T00:48:05;99356.81;;;24.53;100.00
6200;BME280;3133;43.214;27.906;2023-08-06T00:50:33;99354.66;;;24.58;100.00
6200;BME280;3133;43.214;27.906;2023-08-06T00:53:02;99348.72;;;24.66;100.00
6200;BME280;3133;43.214;27.906;2023-08-06T00:55:29;99351.78;;;24.72;100.00
6200;BME280;3133;43.214;27.906;2023-08-06T00:57:56;99355.00;;;24.77;100.00
6200;BME280;3133;43.214;27.906;2023-08-06T01:00:25;99324.09;;;24.51;100.00
6200;BME280;3133;43.214;27.906;2023-08-06T01:02:53;99311.09;;;24.47;100.00
6200;BME280;3133;43.214;27.906;2023-08-06T01:05:20;99270.78;;;24.16;100.00
6200;BME280;3133;43.214;27.906;2023-08-06T01:08:01;99335.09;;;24.47;100.00
6200;BME280;3133;43.214;27.906;2023-08-06T01:10:41;99349.38;;;24.69;100.00
6200;BME280;3133;43.214;27.906;2023-08-06T01:13:18;99320.81;;;24.48;100.00
6200;BME280;3133;43.214;27.906;2023-08-06T01:15:55;99302.63;;;24.42;100.00
6200;BME280;3133;43.214;27.906;2023-08-06T01:18:23;99325.91;;;24.51;100.00
6200;BME280;3133;43.214;27.906;2023-08-06T01:20:51;99302.25;;;24.35;100.00
6200;BME280;3133;43.214;27.906;2023-08-06T01:23:18;99261.00;;;24.17;100.00
6200;BME280;3133;43.214;27.906;2023-08-06T01:25:49;99291.47;;;24.36;100.00
6200;BME280;3133;43.214;27.906;2023-08-06T01:28:26;99294.03;;;24.49;100.00
6200;BME280;3133;43.214;27.906;2023-08-06T01:30:55;99295.00;;;24.37;100.00
6200;BME280;3133;43.214;27.906;2023-08-06T01:33:28;99287.72;;;24.39;100.00
6200;BME280;3133;43.214;27.906;2023-08-06T01:35:57;99279.00;;;24.37;100.00
6200;BME280;3133;43.214;27.906;2023-08-06T01:38:25;99262.28;;;24.35;100.00
6200;BME280;3133;43.214;27.906;2023-08-06T01:40:53;99290.47;;;24.37;100.00
6200;BME280;3133;43.214;27.906;2023-08-06T01:43:20;99254.19;;;24.13;100.00
6200;BME280;3133;43.214;27.906;2023-08-06T01:45:47;99242.31;;;24.06;100.00
6200;BME280;3133;43.214;27.906;2023-08-06T01:48:14;99269.41;;;24.34;100.00
6200;BME280;3133;43.214;27.906;2023-08-06T01:50:41;99247.69;;;24.28;100.00
6200;BME280;3133;43.214;27.906;2023-08-06T01:53:09;99239.31;;;24.21;100.00
6200;BME280;3133;43.214;27.906;2023-08-06T01:55:35;99246.47;;;24.21;100.00
6200;BME280;3133;43.214;27.906;2023-08-06T01:58:02;99231.81;;;24.15;100.00
6200;BME280;3133;43.214;27.906;2023-08-06T02:00:29;99266.63;;;24.36;100.00
6200;BME280;3133;43.214;27.906;2023-08-06T02:02:56;99254.66;;;24.42;100.00
6200;BME280;3133;43.214;27.906;2023-08-06T02:05:23;99260.59;;;24.45;100.00
6200;BME280;3133;43.214;27.906;2023-08-06T02:07:50;99216.03;;;24.12;100.00
6200;BME280;3133;43.214;27.906;2023-08-06T02:10:19;99252.81;;;24.42;100.00
6200;BME280;3133;43.214;27.906;2023-08-06T02:12:46;99251.47;;;24.36;100.00
6200;BME280;3133;43.214;27.906;2023-08-06T02:15:13;99206.00;;;24.16;100.00
6200;BME280;3133;43.214;27.906;2023-08-06T02:17:39;99252.09;;;24.51;100.00
6200;BME280;3133;43.214;27.906;2023-08-06T02:20:07;99236.22;;;24.38;100.00
6200;BME280;3133;43.214;27.906;2023-08-06T02:22:34;99208.16;;;24.11;100.00
6200;BME280;3133;43.214;27.906;2023-08-06T02:25:01;99200.31;;;24.09;100.00
6200;BME280;3133;43.214;27.906;2023-08-06T02:27:29;99230.97;;;24.26;100.00
6200;BME280;3133;43.214;27.906;2023-08-06T02:29:56;99227.59;;;24.24;100.00
6200;BME280;3133;43.214;27.906;2023-08-06T02:32:23;99198.59;;;24.08;100.00
6200;BME280;3133;43.214;27.906;2023-08-06T02:34:49;99187.22;;;24.06;100.00
6200;BME280;3133;43.214;27.906;2023-08-06T02:37:19;99214.84;;;24.16;100.00
6200;BME280;3133;43.214;27.906;2023-08-06T02:39:46;99195.50;;;24.02;100.00
6200;BME280;3133;43.214;27.906;2023-08-06T02:42:13;99213.50;;;24.11;100.00
6200;BME280;3133;43.214;27.906;2023-08-06T02:44:41;99198.81;;;24.05;100.00
6200;BME280;3133;43.214;27.906;2023-08-06T02:47:08;99207.81;;;24.15;100.00
6200;BME280;3133;43.214;27.906;2023-08-06T02:49:37;99207.69;;;24.17;100.00
6200;BME280;3133;43.214;27.906;2023-08-06T02:52:07;99172.59;;;23.88;100.00
6200;BME280;3133;43.214;27.906;2023-08-06T02:54:34;99221.88;;;24.17;100.00
6200;BME280;3133;43.214;27.906;2023-08-06T02:57:00;99200.41;;;24.08;100.00
6200;BME280;3133;43.214;27.906;2023-08-06T02:59:27;99230.72;;;24.29;100.00
6200;BME280;3133;43.214;27.906;2023-08-06T03:01:55;99236.22;;;24.38;100.00
6200;BME280;3133;43.214;27.906;2023-08-06T03:04:24;99219.13;;;24.30;100.00
6200;BME280;3133;43.214;27.906;2023-08-06T03:06:51;99247.97;;;24.47;100.00
6200;BME280;3133;43.214;27.906;2023-08-06T03:09:18;99255.38;;;24.55;100.00
6200;BME280;3133;43.214;27.906;2023-08-06T03:11:45;99233.44;;;24.51;100.00
6200;BME280;3133;43.214;27.906;2023-08-06T03:14:12;99214.28;;;24.46;100.00
6200;BME280;3133;43.214;27.906;2023-08-06T03:16:39;99255.31;;;24.78;100.00
6200;BME280;3133;43.214;27.906;2023-08-06T03:19:07;99236.91;;;24.75;100.00
6200;BME280;3133;43.214;27.906;2023-08-06T03:21:34;99240.06;;;24.80;100.00
6200;BME280;3133;43.214;27.906;2023-08-06T03:24:01;99265.13;;;25.00;100.00
6200;BME280;3133;43.214;27.906;2023-08-06T03:26:28;99262.25;;;25.03;100.00
6200;BME280;3133;43.214;27.906;2023-08-06T03:28:55;99264.56;;;25.07;100.00
6200;BME280;3133;43.214;27.906;2023-08-06T03:31:22;99197.34;;;24.69;100.00
6200;BME280;3133;43.214;27.906;2023-08-06T03:33:49;99264.66;;;25.17;100.00
6200;BME280;3133;43.214;27.906;2023-08-06T03:36:17;99223.66;;;24.96;100.00
6200;BME280;3133;43.214;27.906;2023-08-06T03:38:44;99267.69;;;25.24;100.00
6200;BME280;3133;43.214;27.906;2023-08-06T03:41:10;99244.66;;;25.11;100.00
6200;BME280;3133;43.214;27.906;2023-08-06T03:43:37;99262.34;;;25.24;100.00
6200;BME280;3133;43.214;27.906;2023-08-06T03:46:04;99276.03;;;25.30;100.00
6200;BME280;3133;43.214;27.906;2023-08-06T03:48:31;99267.22;;;25.19;100.00
6200;BME280;3133;43.214;27.906;2023-08-06T03:50:58;99293.78;;;25.31;100.00
6200;BME280;3133;43.214;27.906;2023-08-06T03:53:27;99246.97;;;25.05;100.00
6200;BME280;3133;43.214;27.906;2023-08-06T03:55:54;99279.44;;;25.32;100.00
6200;BME280;3133;43.214;27.906;2023-08-06T03:58:25;99256.91;;;25.25;100.00
6200;BME280;3133;43.214;27.906;2023-08-06T04:00:58;99210.22;;;24.97;100.00
6200;BME280;3133;43.214;27.906;2023-08-06T04:03:25;99273.00;;;25.35;100.00
6200;BME280;3133;43.214;27.906;2023-08-06T04:05:52;99225.25;;;25.09;100.00
6200;BME280;3133;43.214;27.906;2023-08-06T04:08:22;99272.66;;;25.28;100.00
6200;BME280;3133;43.214;27.906;2023-08-06T04:10:51;99269.97;;;25.28;100.00
6200;BME280;3133;43.214;27.906;2023-08-06T04:13:18;99262.47;;;25.22;100.00
6200;BME280;3133;43.214;27.906;2023-08-06T04:15:45;99271.47;;;25.21;100.00
6200;BME280;3133;43.214;27.906;2023-08-06T04:18:13;99261.63;;;25.10;100.00
6200;BME280;3133;43.214;27.906;2023-08-06T04:20:44;99197.75;;;24.76;100.00
6200;BME280;3133;43.214;27.906;2023-08-06T04:23:11;99134.06;;;24.49;100.00
6200;BME280;3133;43.214;27.906;2023-08-06T04:25:38;99263.44;;;25.43;100.00
6200;BME280;3133;43.214;27.906;2023-08-06T04:28:07;99195.25;;;25.17;100.00
6200;BME280;3133;43.214;27.906;2023-08-06T04:30:34;99249.44;;;25.62;100.00
6200;BME280;3133;43.214;27.906;2023-08-06T04:33:01;99139.72;;;25.00;100.00
6200;BME280;3133;43.214;27.906;2023-08-06T04:35:27;99232.28;;;25.64;100.00
6200;BME280;3133;43.214;27.906;2023-08-06T04:37:55;99038.09;;;24.60;100.00
6200;BME280;3133;43.214;27.906;2023-08-06T04:40:21;99224.06;;;25.88;100.00
6200;BME280;3133;43.214;27.906;2023-08-06T04:42:49;99258.69;;;26.21;100.00
6200;BME280;3133;43.214;27.906;2023-08-06T04:45:17;99117.25;;;25.56;100.00
6200;BME280;3133;43.214;27.906;2023-08-06T04:47:44;99087.88;;;25.56;100.00
6200;BME280;3133;43.214;27.906;2023-08-06T04:50:10;99076.41;;;25.65;100.00
6200;BME280;3133;43.214;27.906;2023-08-06T04:52:37;99122.22;;;26.02;100.00
6200;BME280;3133;43.214;27.906;2023-08-06T04:55:05;99229.69;;;26.68;100.00
6200;BME280;3133;43.214;27.906;2023-08-06T04:57:32;99236.63;;;26.70;100.00
6200;BME280;3133;43.214;27.906;2023-08-06T04:59:59;99229.28;;;26.63;100.00
6200;BME280;3133;43.214;27.906;2023-08-06T05:02:27;99225.69;;;26.73;100.00
6200;BME280;3133;43.214;27.906;2023-08-06T05:04:54;99220.78;;;26.78;100.00
6200;BME280;3133;43.214;27.906;2023-08-06T05:07:21;99115.09;;;25.71;100.00
6200;BME280;3133;43.214;27.906;2023-08-06T05:09:48;99104.56;;;25.69;100.00
6200;BME280;3133;43.214;27.906;2023-08-06T05:12:15;99223.41;;;26.48;100.00
6200;BME280;3133;43.214;27.906;2023-08-06T05:14:42;99226.28;;;26.15;100.00
6200;BME280;3133;43.214;27.906;2023-08-06T05:17:08;99173.34;;;25.56;100.00
6200;BME280;3133;43.214;27.906;2023-08-06T05:19:37;99189.31;;;25.67;100.00
6200;BME280;3133;43.214;27.906;2023-08-06T05:22:04;99138.06;;;25.42;100.00
6200;BME280;3133;43.214;27.906;2023-08-06T05:24:31;99169.91;;;25.65;100.00
6200;BME280;3133;43.214;27.906;2023-08-06T05:26:58;99100.19;;;25.48;100.00
6200;BME280;3133;43.214;27.906;2023-08-06T05:29:24;99221.34;;;26.10;100.00
6200;BME280;3133;43.214;27.906;2023-08-06T05:31:52;99047.84;;;24.93;100.00
6200;BME280;3133;43.214;27.906;2023-08-06T05:34:19;99178.44;;;25.80;100.00
6200;BME280;3133;43.214;27.906;2023-08-06T05:36:49;99069.13;;;25.47;100.00
6200;BME280;3133;43.214;27.906;2023-08-06T05:39:15;99110.78;;;26.11;100.00
6200;BME280;3133;43.214;27.906;2023-08-06T05:41:42;99225.09;;;27.00;100.00
6200;BME280;3133;43.214;27.906;2023-08-06T05:44:09;99056.50;;;26.20;100.00
6200;BME280;3133;43.214;27.906;2023-08-06T05:46:36;99209.50;;;27.83;100.00
6200;BME280;3133;43.214;27.906;2023-08-06T05:49:03;99223.28;;;28.64;100.00
6200;BME280;3133;43.214;27.906;2023-08-06T05:51:30;99234.41;;;29.06;100.00
6200;BME280;3133;43.214;27.906;2023-08-06T05:53:58;99137.47;;;28.72;100.00
6200;BME280;3133;43.214;27.906;2023-08-06T05:56:25;99239.75;;;28.79;100.00
6200;BME280;3133;43.214;27.906;2023-08-06T05:58:52;99148.25;;;27.88;100.00
6200;BME280;3133;43.214;27.906;2023-08-06T06:01:19;99204.94;;;29.14;100.00
6200;BME280;3133;43.214;27.906;2023-08-06T06:03:46;99135.56;;;29.90;100.00
6200;BME280;3133;43.214;27.906;2023-08-06T06:06:13;99144.19;;;30.19;100.00
6200;BME280;3133;43.214;27.906;2023-08-06T06:08:40;99129.34;;;29.72;100.00
6200;BME280;3133;43.214;27.906;2023-08-06T06:11:08;99143.75;;;29.18;100.00
6200;BME280;3133;43.214;27.906;2023-08-06T06:13:35;99263.78;;;30.07;100.00
6200;BME280;3133;43.214;27.906;2023-08-06T06:16:02;99162.81;;;29.24;100.00
6200;BME280;3133;43.214;27.906;2023-08-06T06:18:30;99262.91;;;29.26;100.00
6200;BME280;3133;43.214;27.906;2023-08-06T06:20:57;99183.91;;;28.82;100.00
6200;BME280;3133;43.214;27.906;2023-08-06T06:23:24;99155.56;;;28.98;100.00
6200;BME280;3133;43.214;27.906;2023-08-06T06:25:51;99218.63;;;29.75;100.00
6200;BME280;3133;43.214;27.906;2023-08-06T06:28:19;99156.31;;;29.80;100.00
6200;BME280;3133;43.214;27.906;2023-08-06T06:30:46;99181.72;;;29.68;100.00
6200;BME280;3133;43.214;27.906;2023-08-06T06:33:13;99158.69;;;29.47;100.00
6200;BME280;3133;43.214;27.906;2023-08-06T06:35:40;99261.97;;;30.68;100.00
6200;BME280;3133;43.214;27.906;2023-08-06T06:38:08;99273.72;;;31.19;100.00
6200;BME280;3133;43.214;27.906;2023-08-06T06:40:35;99281.88;;;31.27;100.00
6200;BME280;3133;43.214;27.906;2023-08-06T06:43:03;99222.06;;;30.89;100.00
6200;BME280;3133;43.214;27.906;2023-08-06T06:45:31;99163.78;;;31.30;100.00
6200;BME280;3133;43.214;27.906;2023-08-06T06:47:58;99251.41;;;31.84;100.00
6200;BME280;3133;43.214;27.906;2023-08-06T06:50:25;99128.72;;;30.80;100.00
6200;BME280;3133;43.214;27.906;2023-08-06T06:52:51;99170.09;;;29.32;100.00
6200;BME280;3133;43.214;27.906;2023-08-06T06:55:18;99266.16;;;29.75;100.00
6200;BME280;3133;43.214;27.906;2023-08-06T06:57:45;99095.25;;;27.53;100.00
6200;BME280;3133;43.214;27.906;2023-08-06T07:00:13;99255.50;;;28.45;100.00
6200;BME280;3133;43.214;27.906;2023-08-06T07:02:41;99238.47;;;28.73;100.00
6200;BME280;3133;43.214;27.906;2023-08-06T07:05:08;99246.25;;;29.40;100.00
6200;BME280;3133;43.214;27.906;2023-08-06T07:07:35;99245.13;;;30.05;100.00
6200;BME280;3133;43.214;27.906;2023-08-06T07:10:03;99234.56;;;30.47;100.00
6200;BME280;3133;43.214;27.906;2023-08-06T07:12:31;99261.66;;;30.97;100.00
6200;BME280;3133;43.214;27.906;2023-08-06T07:14:58;99266.25;;;30.79;100.00
6200;BME280;3133;43.214;27.906;2023-08-06T07:17:24;99116.47;;;29.40;100.00
6200;BME280;3133;43.214;27.906;2023-08-06T07:19:53;99268.59;;;29.68;100.00
6200;BME280;3133;43.214;27.906;2023-08-06T07:22:19;99153.50;;;28.64;100.00
6200;BME280;3133;43.214;27.906;2023-08-06T07:24:46;99126.47;;;28.29;100.00
6200;BME280;3133;43.214;27.906;2023-08-06T07:27:13;99210.06;;;28.80;100.00
6200;BME280;3133;43.214;27.906;2023-08-06T07:29:40;99238.31;;;29.21;100.00
6200;BME280;3133;43.214;27.906;2023-08-06T07:32:07;99119.16;;;28.22;100.00
6200;BME280;3133;43.214;27.906;2023-08-06T07:34:34;99213.31;;;29.11;100.00
6200;BME280;3133;43.214;27.906;2023-08-06T07:37:05;99132.06;;;28.45;100.00
6200;BME280;3133;43.214;27.906;2023-08-06T07:39:32;99180.50;;;28.90;100.00
6200;BME280;3133;43.214;27.906;2023-08-06T07:41:59;99117.59;;;29.10;100.00
6200;BME280;3133;43.214;27.906;2023-08-06T07:44:27;99167.69;;;29.74;100.00
6200;BME280;3133;43.214;27.906;2023-08-06T07:46:54;99260.94;;;30.44;100.00
6200;BME280;3133;43.214;27.906;2023-08-06T07:49:22;99154.31;;;28.65;100.00
6200;BME280;3133;43.214;27.906;2023-08-06T07:51:48;99254.03;;;28.70;100.00
6200;BME280;3133;43.214;27.906;2023-08-06T07:54:21;99255.41;;;29.75;100.00
6200;BME280;3133;43.214;27.906;2023-08-06T07:56:47;99131.03;;;29.37;100.00
6200;BME280;3133;43.214;27.906;2023-08-06T07:59:14;99213.81;;;30.40;100.00
6200;BME280;3133;43.214;27.906;2023-08-06T08:01:42;99154.81;;;30.03;100.00
6200;BME280;3133;43.214;27.906;2023-08-06T08:04:09;99272.56;;;30.09;100.00
6200;BME280;3133;43.214;27.906;2023-08-06T08:06:36;99264.97;;;29.87;100.00
6200;BME280;3133;43.214;27.906;2023-08-06T08:09:04;99268.25;;;29.98;100.00
6200;BME280;3133;43.214;27.906;2023-08-06T08:11:35;99174.72;;;28.58;100.00
6200;BME280;3133;43.214;27.906;2023-08-06T08:14:02;99089.41;;;28.05;100.00
6200;BME280;3133;43.214;27.906;2023-08-06T08:16:32;99270.16;;;29.07;100.00
6200;BME280;3133;43.214;27.906;2023-08-06T08:18:59;99186.91;;;28.79;100.00
6200;BME280;3133;43.214;27.906;2023-08-06T08:21:25;99276.06;;;29.10;100.00
6200;BME280;3133;43.214;27.906;2023-08-06T08:23:52;99153.63;;;27.69;100.00
6200;BME280;3133;43.214;27.906;2023-08-06T08:26:19;99112.59;;;27.78;100.00
6200;BME280;3133;43.214;27.906;2023-08-06T08:28:48;99253.16;;;28.79;100.00
6200;BME280;3133;43.214;27.906;2023-08-06T08:31:15;99118.56;;;28.28;100.00
6200;BME280;3133;43.214;27.906;2023-08-06T08:33:42;99130.66;;;28.04;100.00
6200;BME280;3133;43.214;27.906;2023-08-06T08:36:09;99181.88;;;28.48;100.00
6200;BME280;3133;43.214;27.906;2023-08-06T08:38:36;99251.06;;;29.19;100.00
6200;BME280;3133;43.214;27.906;2023-08-06T08:41:03;99086.78;;;28.33;100.00
6200;BME280;3133;43.214;27.906;2023-08-06T08:43:31;99141.78;;;27.52;100.00
6200;BME280;3133;43.214;27.906;2023-08-06T08:46:00;99161.38;;;28.00;100.00
6200;BME280;3133;43.214;27.906;2023-08-06T08:48:28;99048.84;;;27.72;100.00
6200;BME280;3133;43.214;27.906;2023-08-06T08:50:56;99192.47;;;28.59;100.00
6200;BME280;3133;43.214;27.906;2023-08-06T08:53:23;99066.28;;;28.04;100.00
6200;BME280;3133;43.214;27.906;2023-08-06T08:55:52;99148.00;;;28.47;100.00
6200;BME280;3133;43.214;27.906;2023-08-06T08:58:19;99223.97;;;29.03;100.00
6200;BME280;3133;43.214;27.906;2023-08-06T09:00:46;99203.50;;;28.56;100.00
6200;BME280;3133;43.214;27.906;2023-08-06T09:03:16;99207.19;;;28.45;100.00
6200;BME280;3133;43.214;27.906;2023-08-06T09:05:45;99223.59;;;28.89;100.00
6200;BME280;3133;43.214;27.906;2023-08-06T09:08:18;99229.59;;;29.10;100.00
6200;BME280;3133;43.214;27.906;2023-08-06T09:10:48;99176.28;;;28.88;100.00
6200;BME280;3133;43.214;27.906;2023-08-06T09:13:16;99088.69;;;28.13;100.00
6200;BME280;3133;43.214;27.906;2023-08-06T09:15:42;99070.81;;;27.85;100.00
6200;BME280;3133;43.214;27.906;2023-08-06T09:18:11;99133.44;;;28.13;100.00
6200;BME280;3133;43.214;27.906;2023-08-06T09:20:39;99150.97;;;27.59;100.00
6200;BME280;3133;43.214;27.906;2023-08-06T09:23:07;99170.50;;;27.31;100.00
6200;BME280;3133;43.214;27.906;2023-08-06T09:25:38;99188.63;;;27.86;100.00
6200;BME280;3133;43.214;27.906;2023-08-06T09:28:05;99179.59;;;27.87;100.00
6200;BME280;3133;43.214;27.906;2023-08-06T09:30:34;99081.16;;;27.51;100.00
6200;BME280;3133;43.214;27.906;2023-08-06T09:33:01;99148.50;;;28.23;100.00
6200;BME280;3133;43.214;27.906;2023-08-06T09:35:28;99181.88;;;28.67;100.00
6200;BME280;3133;43.214;27.906;2023-08-06T09:38:05;99187.38;;;28.65;100.00
6200;BME280;3133;43.214;27.906;2023-08-06T09:40:33;99184.81;;;28.08;100.00
6200;BME280;3133;43.214;27.906;2023-08-06T09:43:00;99142.94;;;27.59;100.00
6200;BME280;3133;43.214;27.906;2023-08-06T09:45:30;99176.47;;;27.44;100.00
6200;BME280;3133;43.214;27.906;2023-08-06T09:47:57;99160.69;;;27.60;100.00
6200;BME280;3133;43.214;27.906;2023-08-06T09:50:28;99128.22;;;27.34;100.00
6200;BME280;3133;43.214;27.906;2023-08-06T09:52:58;99154.19;;;27.44;100.00
6200;BME280;3133;43.214;27.906;2023-08-06T09:55:25;99137.56;;;27.59;100.00
6200;BME280;3133;43.214;27.906;2023-08-06T09:57:53;99171.63;;;27.28;100.00
6200;BME280;3133;43.214;27.906;2023-08-06T10:00:21;99154.47;;;26.91;100.00
6200;BME280;3133;43.214;27.906;2023-08-06T10:02:49;99028.44;;;26.54;100.00
6200;BME280;3133;43.214;27.906;2023-08-06T10:05:19;98998.50;;;26.70;100.00
6200;BME280;3133;43.214;27.906;2023-08-06T10:07:47;99063.22;;;27.04;100.00
6200;BME280;3133;43.214;27.906;2023-08-06T10:10:17;99118.66;;;27.61;100.00
6200;BME280;3133;43.214;27.906;2023-08-06T10:12:47;99129.94;;;27.55;100.00
6200;BME280;3133;43.214;27.906;2023-08-06T10:15:17;99142.34;;;27.56;100.00
6200;BME280;3133;43.214;27.906;2023-08-06T10:17:47;99064.34;;;27.30;100.00
6200;BME280;3133;43.214;27.906;2023-08-06T10:20:17;99117.69;;;27.52;100.00
6200;BME280;3133;43.214;27.906;2023-08-06T10:22:44;98978.00;;;26.21;100.00
6200;BME280;3133;43.214;27.906;2023-08-06T10:25:17;99110.31;;;27.16;100.00
6200;BME280;3133;43.214;27.906;2023-08-06T10:27:53;99108.63;;;27.34;100.00
6200;BME280;3133;43.214;27.906;2023-08-06T10:30:22;99081.72;;;27.16;100.00
6200;BME280;3133;43.214;27.906;2023-08-06T10:32:51;99107.63;;;27.25;100.00
6200;BME280;3133;43.214;27.906;2023-08-06T10:35:30;99028.03;;;26.49;100.00
6200;BME280;3133;43.214;27.906;2023-08-06T10:38:03;98958.44;;;26.21;100.00
6200;BME280;3133;43.214;27.906;2023-08-06T10:40:32;99059.59;;;27.14;100.00
6200;BME280;3133;43.214;27.906;2023-08-06T10:43:00;99057.44;;;26.99;100.00
6200;BME280;3133;43.214;27.906;2023-08-06T10:45:27;99086.47;;;27.13;100.00
6200;BME280;3133;43.214;27.906;2023-08-06T10:47:56;99050.81;;;27.12;100.00
6200;BME280;3133;43.214;27.906;2023-08-06T10:50:24;99093.00;;;27.68;100.00
6200;BME280;3133;43.214;27.906;2023-08-06T10:52:51;99055.34;;;27.60;100.00
6200;BME280;3133;43.214;27.906;2023-08-06T10:55:25;98995.31;;;27.24;100.00
6200;BME280;3133;43.214;27.906;2023-08-06T10:57:55;99100.41;;;27.93;100.00
6200;BME280;3133;43.214;27.906;2023-08-06T11:00:23;98974.88;;;27.13;100.00
6200;BME280;3133;43.214;27.906;2023-08-06T11:02:50;98923.31;;;26.54;100.00
6200;BME280;3133;43.214;27.906;2023-08-06T11:05:18;99044.19;;;27.07;100.00
6200;BME280;3133;43.214;27.906;2023-08-06T11:07:45;99056.75;;;27.16;100.00
6200;BME280;3133;43.214;27.906;2023-08-06T11:10:13;99098.59;;;27.17;100.00
6200;BME280;3133;43.214;27.906;2023-08-06T11:12:40;99093.25;;;27.26;100.00
6200;BME280;3133;43.214;27.906;2023-08-06T11:15:10;99079.19;;;27.44;100.00
6200;BME280;3133;43.214;27.906;2023-08-06T11:17:39;99015.19;;;27.12;100.00
6200;BME280;3133;43.214;27.906;2023-08-06T11:20:07;99060.00;;;27.10;100.00
6200;BME280;3133;43.214;27.906;2023-08-06T11:22:36;99073.50;;;26.99;100.00
6200;BME280;3133;43.214;27.906;2023-08-06T11:25:04;99067.28;;;26.79;100.00
6200;BME280;3133;43.214;27.906;2023-08-06T11:27:32;99067.72;;;26.84;100.00
6200;BME280;3133;43.214;27.906;2023-08-06T11:30:02;98811.16;;;25.65;100.00
6200;BME280;3133;43.214;27.906;2023-08-06T11:32:33;99053.78;;;27.28;100.00
6200;BME280;3133;43.214;27.906;2023-08-06T11:35:09;99050.53;;;27.34;100.00
6200;BME280;3133;43.214;27.906;2023-08-06T11:37:38;99005.44;;;27.11;100.00
6200;BME280;3133;43.214;27.906;2023-08-06T11:40:08;99007.16;;;27.50;100.00
6200;BME280;3133;43.214;27.906;2023-08-06T11:42:36;98847.56;;;26.53;100.00
6200;BME280;3133;43.214;27.906;2023-08-06T11:45:04;99047.03;;;27.63;100.00
6200;BME280;3133;43.214;27.906;2023-08-06T11:47:32;99044.06;;;27.56;100.00
6200;BME280;3133;43.214;27.906;2023-08-06T11:49:59;99067.56;;;27.81;100.00
6200;BME280;3133;43.214;27.906;2023-08-06T11:52:26;99019.41;;;27.53;100.00
6200;BME280;3133;43.214;27.906;2023-08-06T11:55:01;98970.78;;;26.71;100.00
6200;BME280;3133;43.214;27.906;2023-08-06T11:57:29;99072.28;;;27.31;100.00
6200;BME280;3133;43.214;27.906;2023-08-06T12:00:01;98997.63;;;26.50;100.00
6200;BME280;3133;43.214;27.906;2023-08-06T12:02:32;99174.56;;;27.25;100.00
6200;BME280;3133;43.214;27.906;2023-08-06T12:05:04;99208.88;;;27.41;100.00
6200;BME280;3133;43.214;27.906;2023-08-06T12:07:32;99061.16;;;26.68;100.00
6200;BME280;3133;43.214;27.906;2023-08-06T12:09:59;99142.53;;;27.05;100.00
6200;BME280;3133;43.214;27.906;2023-08-06T12:12:26;99096.25;;;26.74;100.00
6200;BME280;3133;43.214;27.906;2023-08-06T12:14:54;99208.91;;;27.11;100.00
6200;BME280;3133;43.214;27.906;2023-08-06T12:17:22;99191.13;;;27.00;100.00
6200;BME280;3133;43.214;27.906;2023-08-06T12:19:50;99146.50;;;26.40;100.00
6200;BME280;3133;43.214;27.906;2023-08-06T12:22:17;99130.47;;;26.40;100.00
6200;BME280;3133;43.214;27.906;2023-08-06T12:24:46;99151.16;;;26.69;100.00
6200;BME280;3133;43.214;27.906;2023-08-06T12:27:14;99200.25;;;26.88;100.00
6200;BME280;3133;43.214;27.906;2023-08-06T12:29:42;99211.22;;;26.85;100.00
6200;BME280;3133;43.214;27.906;2023-08-06T12:32:09;99195.56;;;26.81;100.00
6200;BME280;3133;43.214;27.906;2023-08-06T12:34:37;99031.19;;;25.94;100.00
6200;BME280;3133;43.214;27.906;2023-08-06T12:37:06;99180.63;;;26.78;100.00
6200;BME280;3133;43.214;27.906;2023-08-06T12:39:34;99180.63;;;26.78;100.00
6200;BME280;3133;43.214;27.906;2023-08-06T12:42:01;99168.56;;;26.84;100.00
6200;BME280;3133;43.214;27.906;2023-08-06T12:44:28;99139.72;;;26.67;100.00
6200;BME280;3133;43.214;27.906;2023-08-06T12:46:55;99166.28;;;26.89;100.00
6200;BME280;3133;43.214;27.906;2023-08-06T12:49:22;99169.56;;;26.92;100.00
6200;BME280;3133;43.214;27.906;2023-08-06T12:51:50;99136.03;;;26.58;100.00
6200;BME280;3133;43.214;27.906;2023-08-06T12:54:21;99129.50;;;26.41;100.00
6200;BME280;3133;43.214;27.906;2023-08-06T12:56:48;99200.38;;;26.87;100.00
6200;BME280;3133;43.214;27.906;2023-08-06T12:59:16;99191.00;;;26.72;100.00
6200;BME280;3133;43.214;27.906;2023-08-06T13:01:43;99199.88;;;26.72;100.00
6200;BME280;3133;43.214;27.906;2023-08-06T13:04:11;99167.25;;;26.78;100.00